Terminal Aerodrome Forecast
Issued by NWS Boise, ID

Home | Current Version | Previous Version | Text Only | Print | Product List | Glossary On
Versions: 1 2 3 4 5 6 7 8 9 10 11 12 13 14 15 16 17 18 19 20 21 22 23 24 25
000
FTUS45 KBOI 300124 AAA
TAFBNO
TAF AMD
KBNO 300124Z 3001/3024 20011KT 5SM FU SCT100 BKN200
     FM300300 27008KT P6SM SCT200
     FM301800 25015G25KT P6SM SCT100 BKN200=

USA.gov is the U.S. government's official web portal to all federal, state and local government web resources and services.